• Join FlightAware (Why Join?)
  • Login
  • US Flag 
08:29AM EDT


 

Airport Tracker/Info


-or-


 

Live Flight TrackerFlight Track Log ✈ AWE433 ✈ 05-May-2013 ✈ KLAS - KPHL

Flight Track Log - Related Links

Times and Time Zones

All times are in EDT time to prevent confusion due to time zone crossing. See the AWE433 flight status page for this flight to view local times or setup timezone preferences in your user account.

Time Position Orientation Groundspeed Altitude Reporting Facility
EDT Latitude Longitude Course Direction KTS MPH feet Rate Location/Type
03:57AM 36.0747 -115.1819 93° East 196 226 3,400  Level Los Angeles Center
03:57AM 36.0753 -115.2136 271° West 196 226 4,200 1,740 Climbing Los Angeles Center
03:58AM 36.0892 -115.2889 283° West 236 272 5,900 1,740 Climbing Los Angeles Center
03:59AM 36.1834 -115.0426 90° East  Level FlightAware Approximate
03:59AM 36.1203 -115.3008 343° North 255 293 7,100  Level Los Angeles Center
03:59AM 36.1564 -115.2803 25° Northeast 268 308 8,400 2,460 Climbing Los Angeles Center
04:00AM 36.1841 -114.8779 80° East  Level FlightAware Approximate
04:00AM 36.1753 -115.2453 56° Northeast 260 299 9,600  Level Los Angeles Center
04:01AM 36.1977 -114.7148 93° East  Level FlightAware Approximate
04:01AM 36.2017 -115.1539 70° East 280 322 11,400  Level Los Angeles Center
04:02AM 36.1903 -114.5501 93° East  Level FlightAware Approximate
04:02AM 36.1975 -115.0450 93° East 315 362 12,800  Level Los Angeles Center
04:03AM 36.1967 -114.9261 90° East 341 392 15,200 2,700 Climbing Los Angeles Center
04:04AM 36.1997 -114.8136 88° East 331 381 18,300 2,100 Climbing Los Angeles Center
04:05AM 36.2147 -114.6992 81° East 347 399 19,400 1,080 Climbing Los Angeles Center
04:06AM 36.2508 -114.5778 70° East 375 432 20,500 1,140 Climbing Los Angeles Center
04:07AM 36.2900 -114.4458 70° East 404 465 21,700 1,200 Climbing Los Angeles Center
04:08AM 36.3331 -114.3094 69° East 422 486 23,000 1,440 Climbing Los Angeles Center
04:09AM 36.3825 -114.1386 70° East 437 503 24,600 1,500 Climbing Los Angeles Center
04:10AM 36.4269 -113.9953 69° East 443 510 26,000 1,320 Climbing Los Angeles Center
04:11AM 36.4703 -113.8494 70° East 448 516 27,300 1,140 Climbing Los Angeles Center
04:12AM 36.5117 -113.7106 70° East 452 520 28,300 900 Climbing Los Angeles Center
04:13AM 36.5567 -113.5608 69° East 461 531 29,200 840 Climbing Los Angeles Center
04:14AM 36.6019 -113.4075 70° East 471 542 30,000 780 Climbing Los Angeles Center
04:15AM 36.6475 -113.2494 70° East 484 557 30,800 900 Climbing Los Angeles Center
04:16AM 36.6847 -113.1225 70° East 488 562 31,800 1,200 Climbing Los Angeles Center
04:17AM 36.7389 -112.9356 70° East 481 554 33,300 1,020 Climbing Los Angeles Center
04:18AM 36.7814 -112.7847 71° East 469 540 33,900 540 Climbing Los Angeles Center
04:19AM 36.8261 -112.6322 70° East 470 541 34,400 420 Climbing Los Angeles Center
04:20AM 36.8700 -112.4767 71° East 477 549 34,800 300 Climbing Los Angeles Center
04:21AM 36.9153 -112.3194 70° East 482 555 35,000 60 Climbing Los Angeles Center
04:22AM 36.9603 -112.1581 71° East 493 567 35,000  Level Los Angeles Center
04:22AM 36.9881 -112.0592 71° East 498 573 35,000  Level Denver Center
04:23AM 37.0347 -111.8950 70° East 502 578 35,000  Level Denver Center
04:24AM 37.0803 -111.7314 71° East 501 577 35,000  Level Denver Center
04:25AM 37.1258 -111.5667 71° East 502 578 35,000  Level Denver Center
04:27AM 37.1681 -111.4061 72° East 492 566 35,000  Level Denver Center
04:28AM 37.2206 -111.2108 71° East 493 567 35,000  Level Denver Center
04:29AM 37.2642 -111.0489 71° East 492 566 35,000  Level Denver Center
04:30AM 37.3072 -110.8861 72° East 492 566 35,000  Level Denver Center
04:31AM 37.3511 -110.7239 71° East 493 567 35,000  Level Denver Center
04:32AM 37.3939 -110.5589 72° East 498 573 35,000  Level Denver Center
04:33AM 37.4372 -110.3944 72° East 497 572 35,000  Level Denver Center
04:34AM 37.4808 -110.2286 72° East 500 575 35,000  Level Denver Center
04:35AM 37.5242 -110.0583 72° East 498 573 35,000  Level Denver Center
04:36AM 37.5722 -109.8731 72° East 497 572 35,000  Level Denver Center
04:37AM 37.6125 -109.7161 72° East 492 566 35,000  Level Denver Center
04:38AM 37.6522 -109.5567 72° East 496 571 35,000  Level Denver Center
04:39AM 37.6997 -109.3700 72° East 500 575 35,000  Level Denver Center
04:40AM 37.7400 -109.2089 72° East 502 578 35,000  Level Denver Center
04:41AM 37.7803 -109.0467 73° East 504 580 35,000  Level Denver Center
04:42AM 37.8206 -108.8872 72° East 500 575 35,000  Level Denver Center
04:43AM 37.8706 -108.6997 71° East 503 579 35,000  Level Denver Center
04:44AM 37.9117 -108.5408 72° East 499 574 35,000  Level Denver Center
04:45AM 37.9536 -108.3797 72° East 501 577 35,000  Level Denver Center
04:46AM 37.9944 -108.2222 72° East 496 571 35,000  Level Denver Center
04:47AM 38.0428 -108.0367 72° East 495 570 35,000  Level Denver Center
04:48AM 38.0853 -107.8708 72° East 494 568 35,000  Level Denver Center
04:49AM 38.1250 -107.7139 72° East 490 564 35,000  Level Denver Center
04:50AM 38.1658 -107.5553 72° East 493 567 35,000  Level Denver Center
04:51AM 38.2125 -107.3694 72° East 493 567 35,000  Level Denver Center
04:52AM 38.2528 -107.2119 72° East 492 566 35,000  Level Denver Center
04:53AM 38.2925 -107.0494 73° East 491 565 35,000  Level Denver Center
04:54AM 38.3336 -106.8833 72° East 491 565 35,000  Level Denver Center
04:55AM 38.3731 -106.7181 73° East 489 563 35,000  Level Denver Center
04:56AM 38.4131 -106.5525 73° East 491 565 35,000  Level Denver Center
04:57AM 38.4531 -106.3858 73° East 494 568 35,000  Level Denver Center
04:58AM 38.4939 -106.2203 72° East 492 566 35,000  Level Denver Center
04:59AM 38.5358 -106.0400 73° East 490 564 35,000  Level Denver Center
05:00AM 38.5733 -105.8811 73° East 488 562 35,000  Level Denver Center
05:01AM 38.6133 -105.7125 73° East 492 566 35,000  Level Denver Center
05:02AM 38.6531 -105.5442 73° East 492 566 35,000  Level Denver Center
05:03AM 38.6922 -105.3728 74° East 496 571 35,000  Level Denver Center
05:04AM 38.7308 -105.2036 74° East 495 570 35,000  Level Denver Center
05:05AM 38.7703 -105.0342 73° East 493 567 35,000  Level Denver Center
05:06AM 38.8089 -104.8633 74° East 495 570 35,000  Level Denver Center
05:07AM 38.8467 -104.6925 74° East 495 570 35,000  Level Denver Center
05:08AM 38.8856 -104.5225 74° East 495 570 35,000  Level Denver Center
05:09AM 38.9242 -104.3503 74° East 498 573 35,000  Level Denver Center
05:10AM 38.9556 -104.2064 74° East 499 574 35,000  Level Denver Center
05:11AM 38.9931 -104.0325 74° East 504 580 35,000  Level Denver Center
05:12AM 39.0233 -103.8564 77° East 503 579 35,000  Level Denver Center
05:13AM 39.0517 -103.6797 78° East 501 577 35,000  Level Denver Center
05:14AM 39.0789 -103.5036 79° East 499 574 35,000  Level Denver Center
05:15AM 39.1067 -103.3281 78° East 497 572 35,000  Level Denver Center
05:16AM 39.1342 -103.1511 79° East 499 574 35,000  Level Denver Center
05:17AM 39.1617 -102.9750 79° East 499 574 35,000  Level Denver Center
05:18AM 39.1883 -102.7989 79° East 498 573 35,000  Level Denver Center
05:19AM 39.2133 -102.6278 79° East 497 572 35,000  Level Denver Center
05:20AM 39.2419 -102.4314 79° East 497 572 35,000  Level Denver Center
05:21AM 39.2664 -102.2642 79° East 495 570 35,000  Level Denver Center
05:22AM 39.2906 -102.0975 79° East 494 568 35,000  Level Denver Center
05:23AM 39.3142 -101.9308 80° East 494 568 35,000  Level Denver Center
05:24AM 39.3425 -101.7364 79° East 494 568 35,000  Level Denver Center
05:25AM 39.3647 -101.5700 80° East 493 567 35,000  Level Denver Center
05:26AM 39.3878 -101.4067 80° East 488 562 35,000  Level Denver Center
05:27AM 39.4108 -101.2436 80° East 484 557 35,000  Level Denver Center
05:28AM 39.4353 -101.0519 81° East 484 557 35,000  Level Denver Center
05:29AM 39.4578 -100.8897 80° East 483 556 35,000  Level Denver Center
05:30AM 39.4794 -100.7264 80° East 482 555 35,000  Level Denver Center
05:31AM 39.5036 -100.5381 80° East 478 550 35,000  Level Denver Center
05:32AM 39.5244 -100.3756 81° East 478 550 35,000  Level Denver Center
05:33AM 39.5450 -100.2136 81° East 476 548 35,000  Level Denver Center
05:34AM 39.5661 -100.0514 80° East 478 550 35,000  Level Denver Center
05:35AM 39.5900 -99.8589 81° East 475 547 35,000  Level Denver Center
05:36AM 39.6103 -99.6928 81° East 469 540 35,000  Level Denver Center
05:37AM 39.6303 -99.5239 81° East 473 544 35,000  Level Denver Center
05:38AM 39.6500 -99.3600 81° East 463 533 35,000  Level Denver Center
05:39AM 39.6694 -99.1936 81° East 466 536 35,000  Level Denver Center
05:40AM 39.6897 -99.0281 81° East 466 536 35,000  Level Denver Center
05:41AM 39.7081 -98.8622 82° East 465 535 35,000  Level Denver Center
05:42AM 39.7272 -98.6964 81° East 465 535 35,000  Level Denver Center
05:43AM 39.7444 -98.5339 82° East 462 532 35,000  Level Minneapolis Center
05:44AM 39.7642 -98.3711 81° East 460 529 35,000 660 Level Minneapolis Center
05:45AM 39.7836 -98.1797 82° East 450 518 36,400 840 Climbing Minneapolis Center
05:46AM 39.8017 -98.0256 81° East 439 505 36,700 240 Climbing Minneapolis Center
05:47AM 39.8181 -97.8644 82° East 444 511 36,900 120 Climbing Minneapolis Center
05:48AM 39.8358 -97.7025 82° East 451 519 37,000  Climbing Minneapolis Center
05:49AM 39.8519 -97.5408 83° East 452 520 37,000  Level Minneapolis Center
05:50AM 39.8675 -97.3819 83° East 447 514 37,000  Level Minneapolis Center
05:51AM 39.8831 -97.2278 82° East 443 510 37,000 -60 Level Minneapolis Center
05:52AM 39.8989 -97.0747 82° East 434 499 36,900  Descending Minneapolis Center
05:53AM 39.9142 -96.9203 83° East 431 496 37,000  Climbing Minneapolis Center
05:54AM 39.9289 -96.7653 83° East 432 497 37,000  Level Minneapolis Center
05:55AM 39.9433 -96.6100 83° East 433 498 37,000  Level Minneapolis Center
05:56AM 39.9583 -96.4564 83° East 432 497 37,100  Climbing Minneapolis Center
05:57AM 39.9722 -96.3047 83° East 426 490 37,000 -60 Descending Minneapolis Center
05:58AM 39.9847 -96.1564 84° East 417 480 37,000 -60 Level Minneapolis Center
05:59AM 39.9989 -96.0086 83° East 413 475 36,900  Descending Minneapolis Center
06:00AM 40.0136 -95.8575 83° East 419 482 37,000  Climbing Minneapolis Center
06:01AM 40.0281 -95.7053 83° East 422 486 37,000  Level Minneapolis Center
06:02AM 40.0425 -95.5544 83° East 421 484 37,000  Level Minneapolis Center
06:04AM 40.0722 -95.2325 83° East 415 478 37,000  Level Kansas City Center
06:05AM 40.0847 -95.0886 83° East 415 478 37,000  Level Kansas City Center
06:06AM 40.0975 -94.9425 83° East 420 483 37,000  Level Kansas City Center
06:07AM 40.1103 -94.7994 83° East 416 479 37,000  Level Kansas City Center
06:08AM 40.1258 -94.6294 83° East 421 484 37,000  Level Kansas City Center
06:09AM 40.1369 -94.4858 84° East 417 480 37,000  Level Kansas City Center
06:10AM 40.1492 -94.3403 84° East 419 482 37,000  Level Kansas City Center
06:11AM 40.1608 -94.1981 84° East 413 475 37,000  Level Kansas City Center
06:12AM 40.1719 -94.0492 84° East 413 475 37,000  Level Kansas City Center
06:13AM 40.1822 -93.9003 85° East 414 476 37,000  Level Kansas City Center
06:14AM 40.1944 -93.7528 84° East 412 474 37,000  Level Kansas City Center
06:15AM 40.2061 -93.6061 84° East 410 472 37,000  Level Kansas City Center
06:16AM 40.2181 -93.4589 84° East 410 472 37,000  Level Kansas City Center
06:17AM 40.2289 -93.3114 84° East 410 472 37,000  Level Kansas City Center
06:18AM 40.2397 -93.1647 84° East 410 472 37,000  Level Kansas City Center
06:19AM 40.2528 -92.9892 84° East 406 467 37,000  Level Kansas City Center
06:20AM 40.2631 -92.8478 85° East 406 467 37,000  Level Kansas City Center
06:21AM 40.2733 -92.7064 85° East 407 468 37,000  Level Kansas City Center
06:22AM 40.2839 -92.5669 84° East 404 465 37,000  Level Kansas City Center
06:23AM 40.2953 -92.4047 85° East 402 463 37,000  Level Kansas City Center
06:24AM 40.3025 -92.2756 86° East 406 467 37,000  Level Kansas City Center
06:25AM 40.3117 -92.1317 85° East 402 463 37,000  Level Kansas City Center
06:26AM 40.3208 -91.9867 85° East 403 464 37,000  Level Kansas City Center
06:27AM 40.3286 -91.8428 86° East 401 461 37,000  Level Kansas City Center
06:28AM 40.3364 -91.7006 86° East 396 456 37,000  Level Kansas City Center
06:29AM 40.3467 -91.5597 84° East 394 453 37,000  Level Kansas City Center
06:30AM 40.3539 -91.4206 86° East 389 448 37,000  Level Kansas City Center
06:31AM 40.3628 -91.2656 86° East 390 449 37,000  Level Kansas City Center
06:32AM 40.3708 -91.1231 86° East 392 451 37,000  Level Kansas City Center
06:33AM 40.3789 -90.9808 86° East 392 451 37,000  Level Chicago Center
06:34AM 40.3869 -90.8378 86° East 394 453 37,000  Level Chicago Center
06:35AM 40.3947 -90.6953 86° East 392 451 37,000  Level Chicago Center
06:36AM 40.4014 -90.5553 86° East 387 445 37,000  Level Chicago Center
06:37AM 40.4083 -90.4164 86° East 384 442 37,000  Level Chicago Center
06:38AM 40.4144 -90.2769 87° East 385 443 37,000  Level Chicago Center
06:39AM 40.4211 -90.1369 86° East 386 444 37,000  Level Chicago Center
06:40AM 40.4264 -89.9969 87° East 388 447 37,000  Level Chicago Center
06:41AM 40.4328 -89.8558 87° East 390 449 37,000  Level Chicago Center
06:42AM 40.4386 -89.7147 87° East 392 451 37,000  Level Chicago Center
06:43AM 40.4453 -89.5739 86° East 392 451 37,000  Level Chicago Center
06:44AM 40.4503 -89.4325 87° East 391 450 37,000  Level Chicago Center
06:45AM 40.4564 -89.2911 87° East 390 449 37,000  Level Chicago Center
06:46AM 40.4617 -89.1486 87° East 393 452 37,000  Level Chicago Center
06:47AM 40.4672 -89.0075 87° East 391 450 37,000  Level Chicago Center
06:48AM 40.4733 -88.8372 87° East 390 449 37,000  Level Chicago Center
06:49AM 40.4781 -88.7147 87° East 392 451 37,000  Level Chicago Center
06:50AM 40.4828 -88.5725 87° East 395 455 37,000  Level Chicago Center
06:51AM 40.4878 -88.4292 87° East 395 455 37,000  Level Chicago Center
06:52AM 40.4925 -88.2583 88° East 394 453 37,000  Level Chicago Center
06:53AM 40.4981 -88.1142 87° East 399 459 37,000  Level Chicago Center
06:54AM 40.5014 -87.9700 88° East 399 459 37,000  Level Chicago Center
06:55AM 40.5033 -87.8272 89° East 396 456 37,000  Level Chicago Center
06:56AM 40.5061 -87.6822 89° East 399 459 37,000  Level Chicago Center
06:57AM 40.5081 -87.5392 89° East 398 458 37,000  Level Chicago Center
06:58AM 40.5100 -87.3967 89° East 394 453 37,000  Level Chicago Center
06:59AM 40.5111 -87.2531 89° East 396 456 37,000  Level Chicago Center
07:00AM 40.5125 -87.0972 89° East 397 457 37,000  Level Chicago Center
07:01AM 40.5139 -86.9550 89° East 391 450 37,000  Level Chicago Center
07:02AM 40.5153 -86.8125 89° East 391 450 37,000  Level Chicago Center
07:03AM 40.5164 -86.6689 89° East 393 452 37,000  Level Chicago Center
07:04AM 40.5167 -86.5247 90° East 394 453 37,000  Level Chicago Center
07:06AM 40.5172 -86.3797 90° East 396 456 37,000  Level Chicago Center
07:07AM 40.5172 -86.2344 90° East 398 458 37,000  Level Chicago Center
07:08AM 40.5186 -86.0911 89° East 394 453 37,000  Level Chicago Center
07:09AM 40.5178 -85.9467 90° East 396 456 37,000  Level Chicago Center
07:10AM 40.5181 -85.8022 90° East 396 456 37,000  Level Chicago Center
07:11AM 40.5178 -85.6567 90° East 399 459 37,000  Level Chicago Center
07:12AM 40.5172 -85.5114 90° East 401 461 37,000  Level Chicago Center
07:13AM 40.5156 -85.3642 91° East 403 464 37,000  Level Chicago Center
07:14AM 40.5161 -85.2186 90° East 401 461 37,000  Level Chicago Center
07:15AM 40.5136 -85.0733 91° East 401 461 37,000  Level Chicago Center
07:15AM 40.5128 -84.9844 91° East 401 461 37,000 -120 Level Indianapolis Center
07:16AM 40.5125 -84.8558 90° East 400 460 36,900 -60 Descending Indianapolis Center
07:17AM 40.5108 -84.7067 91° East 402 463 36,900  Level Indianapolis Center
07:18AM 40.5086 -84.5586 91° East 402 463 37,000  Climbing Indianapolis Center
07:19AM 40.5072 -84.4100 91° East 403 464 37,000  Level Indianapolis Center
07:20AM 40.5053 -84.2597 91° East 407 468 37,000  Level Indianapolis Center
07:21AM 40.5028 -84.1094 91° East 406 467 37,000 -60 Level Indianapolis Center
07:22AM 40.4994 -83.9600 92° East 406 467 36,900 -60 Descending Indianapolis Center
07:23AM 40.4975 -83.8114 91° East 402 463 36,900  Level Indianapolis Center
07:24AM 40.4953 -83.6606 91° East 407 468 36,900  Level Indianapolis Center
07:25AM 40.4933 -83.5108 91° East 406 467 37,000  Climbing Indianapolis Center
07:26AM 40.4897 -83.3594 92° East 409 471 37,000  Level Indianapolis Center
07:27AM 40.4869 -83.1831 91° East 409 471 37,000  Level Indianapolis Center
07:28AM 40.4844 -83.0572 91° East 410 472 37,000  Level Indianapolis Center
07:29AM 40.4811 -82.8806 91° East 410 472 37,000  Level Indianapolis Center
07:30AM 40.4769 -82.7267 92° East 413 475 37,000  Level Indianapolis Center
07:31AM 40.4733 -82.5753 92° East 413 475 37,000  Level Indianapolis Center
07:32AM 40.4692 -82.4217 92° East 416 479 37,000  Level Indianapolis Center
07:33AM 40.4644 -82.2717 92° East 413 475 37,000  Level Indianapolis Center
07:34AM 40.4606 -82.1225 92° East 409 471 37,000  Level Indianapolis Center
07:35AM 40.4558 -82.0403 94° East 405 466 37,000  Level Cleveland Center
07:36AM 40.4536 -81.8928 91° East 405 466 37,000  Level Cleveland Center
07:37AM 40.4469 -81.7425 93° East 400 460 37,000  Level Cleveland Center
07:38AM 40.4442 -81.5953 91° East 405 466 37,000  Level Cleveland Center
07:39AM 40.4392 -81.4450 92° East 405 466 37,000  Level Cleveland Center
07:40AM 40.4358 -81.3086 92° East 405 466 37,000  Level Cleveland Center
07:41AM 40.4306 -81.1586 93° East 405 466 37,000  Level Cleveland Center
07:42AM 40.4250 -81.0114 93° East 405 466 37,000  Level Cleveland Center
07:43AM 40.4192 -80.8586 93° East 410 472 37,000  Level Cleveland Center
07:44AM 40.4131 -80.7086 93° East 410 472 37,000  Level Cleveland Center
07:45AM 40.4069 -80.5614 93° East 405 466 37,000  Level Cleveland Center
07:46AM 40.4006 -80.4114 93° East 405 466 37,000  Level Cleveland Center
07:47AM 40.3897 -80.2586 95° East 410 472 37,000  Level Cleveland Center
07:48AM 40.3831 -80.1117 93° East 410 472 37,000  Level Cleveland Center
07:49AM 40.3781 -79.9372 92° East 415 478 37,000  Level Cleveland Center
07:50AM 40.3686 -79.7847 95° East 420 483 37,000 -240 Level Cleveland Center
07:51AM 40.3614 -79.6322 94° East 420 483 36,600 -540 Descending Cleveland Center
07:52AM 40.3536 -79.4769 94° East 420 483 36,000 -600 Descending Cleveland Center
07:53AM 40.3458 -79.3192 94° East 425 489 35,400 -900 Descending Cleveland Center
07:54AM 40.3358 -79.1803 95° East 425 489 34,300 -1,200 Descending Cleveland Center
07:55AM 40.3275 -79.0200 94° East 425 489 33,000 -1,320 Descending Cleveland Center
07:56AM 40.3169 -78.8622 95° East 431 496 31,700 -1,320 Descending Cleveland Center
07:57AM 40.3142 -78.6961 91° East 441 507 30,400 -1,260 Descending Cleveland Center
07:58AM 40.3158 -78.5408 89° East 435 501 29,200 -1,260 Descending Cleveland Center
08:00AM 40.3153 -78.2683 90° East 432 497 27,000 -1,320 Descending New York Center
08:01AM 40.3133 -78.1347 91° East 414 476 25,800 -1,020 Descending New York Center
08:02AM 40.3133 -77.9958 90° East 397 457 25,000 -540 Descending New York Center
08:03AM 40.3078 -77.8508 93° East 392 451 24,800 -720 Descending New York Center
08:04AM 40.2950 -77.7108 97° East 392 451 23,600 -1,380 Descending New York Center
08:05AM 40.2822 -77.5733 97° East 392 451 22,100 -1,500 Descending New York Center
08:06AM 40.2692 -77.4389 97° East 387 445 20,700 -1,500 Descending New York Center
08:07AM 40.2556 -77.3069 98° East 374 430 19,200 -900 Descending New York Center
08:08AM 40.2464 -77.1728 95° East 354 407 19,000 -120 Descending New York Center
08:09AM 40.2700 -77.0797 72° East 339 390 19,000 -240 Level New York Center
08:10AM 40.3064 -76.9414 71° East 333 383 18,600 -1,140 Descending New York Center
08:11AM 40.3211 -76.8228 81° East 333 383 16,800 -1,860 Descending New York Center
08:12AM 40.2953 -76.7117 107° East 318 366 15,000 -1,800 Descending New York Center
08:13AM 40.2719 -76.5981 105° East 318 366 13,200 -1,800 Descending New York Center
08:14AM 40.2481 -76.4900 106° East 313 360 11,400 -1,200 Descending New York Center
08:15AM 40.2275 -76.3958 106° East 306 352 10,900 -240 Descending New York Center
08:16AM 40.2017 -76.2769 106° East 306 352 11,000 -300 Climbing New York Center
08:17AM 40.1772 -76.1772 108° East 294 338 10,300 -1,080 Descending New York Center
08:18AM 40.1561 -76.0886 107° East 284 327 8,900 -1,260 Descending New York Center
08:19AM 40.1336 -75.9864 106° East 272 313 7,900 -480 Descending New York Center
08:20AM 40.1164 -75.9064 106° East 267 307 8,000  Climbing New York Center
08:21AM 40.0917 -75.8014 107° East 267 307 8,000  Level New York Center
08:22AM 40.0806 -75.7192 100° East 267 307 8,000  Level New York Center
08:23AM 40.0744 -75.6131 94° East 261 300 8,000 -480 Level New York Center
08:24AM 40.0697 -75.5258 94° East 256 295 7,100 -540 Descending New York Center
08:25AM 40.0550 -75.4272 101° East 256 295 7,000 -240 Descending New York Center
08:26AM 39.9914 -75.4014 163° South 230 265 6,700 -540 Descending New York Center
08:27AM 39.9261 -75.4158 190° South 229 264 6,000 -480 Descending New York Center
08:28AM 39.9083 -75.4958 254° West 203 234 5,800 -420 Descending New York Center
08:29AM 39.8833 -75.6167 255° West 208 239 5,000 -360 Descending Philadelphia TRACON
08:30AM 39.8667 -75.6833 252° West 207 238 5,000  Level Philadelphia TRACON
08:31AM 39.8500 -75.7500 252° West 207 238 5,000  Level Philadelphia TRACON
08:32AM 39.8333 -75.8333 255° West 206 237 5,000  Level Philadelphia TRACON
08:33AM 39.8000 -75.8667 218° Southwest 172 198 5,000  Level Philadelphia TRACON
08:34AM 39.7667 -75.8000 123° Southeast 159 183 5,000 -360 Level Philadelphia TRACON
08:35AM 39.7667 -75.7500 90° East 156 180 4,300 -600 Descending Philadelphia TRACON
08:36AM 39.7667 -75.7000 90° East 155 178 3,900 -180 Descending Philadelphia TRACON
08:37AM 39.7833 -75.6500 67° East 146 168 4,000  Climbing Philadelphia TRACON
08:38AM 39.8000 -75.6000 67° East 153 176 3,900  Descending Philadelphia TRACON
08:39AM 39.8000 -75.5500 90° East 149 171 4,000 -180 Climbing Philadelphia TRACON
08:40AM 39.8167 -75.5000 67° East 141 162 3,600 -660 Descending Philadelphia TRACON
08:41AM 39.8333 -75.4500 67° East 144 166 2,800 -900 Descending Philadelphia TRACON
08:42AM 39.8333 -75.4000 90° East 158 182 1,900 -900 Descending Philadelphia TRACON
08:43AM 39.8500 -75.3500 67° East 128 147 1,100 -720 Descending Philadelphia TRACON
08:44AM 39.8500 -75.3000 90° East 123 142 500 -600 Descending Philadelphia TRACON